.
WxDataArchive / Data Records for 2009-01-11
2009-01-10 January 2009 2009-01-12

Data Records for Sunday, 11 January 2009

Time	Temp	Chill	HIndex	Humid	Dewpt	 Wind 	HiWind	WindDir	Rain 	Barom 
-----	----	-----	------	-----	-----	------	------	-------	-----	----- 
00:00	18.3	18.3	18.3	87	15.1	0	1	338	0.00	30.146 
00:05	18.4	18.4	18.4	87	15.2	1	2	338	0.00	30.146 
00:10	18.6	18.6	18.6	87	15.4	0	2	292	0.00	30.143 
00:15	18.9	18.9	18.9	87	15.7	0	2	315	0.00	30.139 
00:20	19.1	19.1	19.1	87	15.9	0	2	338	0.00	30.142 
00:25	19.2	19.2	19.2	87	16.0	0	2	292	0.00	30.147 
00:30	19.4	19.4	19.4	87	16.2	1	3	292	0.00	30.147 
00:35	19.5	19.5	19.5	87	16.3	0	2	270	0.00	30.146 
00:40	19.5	19.5	19.5	87	16.3	0	2	292	0.00	30.142 
00:45	19.7	19.7	19.7	87	16.5	0	1	292	0.00	30.137 
00:50	19.7	19.7	19.7	87	16.5	0	2	292	0.00	30.139 
00:55	19.7	19.7	19.7	87	16.5	0	2	292	0.00	30.142 
01:00	19.9	19.9	19.9	87	16.7	0	2	292	0.00	30.149 
01:05	19.9	19.9	19.9	86	16.4	0	1	292	0.00	30.150 
01:10	19.9	19.9	19.9	86	16.4	0	1	292	0.00	30.147 
01:15	20.0	20.0	20.0	86	16.5	0	1	292	0.00	30.144 
01:20	20.0	20.0	20.0	86	16.5	0	1	292	0.00	30.143 
01:25	20.0	20.0	20.0	86	16.5	0	3	270	0.00	30.144 
01:30	20.0	20.0	20.0	86	16.5	0	1	270	0.00	30.143 
01:35	20.0	20.0	20.0	86	16.5	0	1	338	0.00	30.141 
01:40	20.0	20.0	20.0	86	16.5	0	1	338	0.00	30.141 
01:45	20.2	20.2	20.2	86	16.7	0	1	338	0.00	30.145 
01:50	20.2	20.2	20.2	86	16.7	0	1	338	0.00	30.144 
01:55	20.2	20.2	20.2	86	16.7	0	1	338	0.00	30.140 
02:00	20.2	20.2	20.2	86	16.7	0	1	338	0.00	30.147 
02:05	20.2	20.2	20.2	86	16.7	0	2	338	0.00	30.149 
02:10	20.3	20.3	20.3	86	16.8	0	1	338	0.00	30.150 
02:15	20.3	20.3	20.3	86	16.8	0	2	225	0.00	30.152 
02:20	20.3	20.3	20.3	86	16.8	0	1	225	0.00	30.155 
02:25	20.3	20.3	20.3	86	16.8	0	2	225	0.00	30.158 
02:30	20.5	20.5	20.5	86	17.0	0	1	315	0.00	30.160 
02:35	20.5	20.5	20.5	86	17.0	0	1	270	0.00	30.163 
02:40	20.5	20.5	20.5	86	17.0	0	2	248	0.00	30.165 
02:45	20.5	20.5	20.5	86	17.0	0	2	248	0.00	30.158 
02:50	20.5	20.5	20.5	86	17.0	0	1	248	0.00	30.162 
02:55	20.5	20.5	20.5	86	17.0	0	1	248	0.00	30.160 
03:00	20.5	20.5	20.5	86	17.0	0	1	248	0.00	30.158 
03:05	20.5	20.5	20.5	86	17.0	0	1	248	0.00	30.165 
03:10	20.5	20.5	20.5	86	17.0	0	1	248	0.00	30.165 
03:15	20.5	20.5	20.5	86	17.0	0	0	---	0.00	30.165 
03:20	20.6	20.6	20.6	86	17.1	0	1	248	0.00	30.169 
03:25	20.6	20.6	20.6	86	17.1	0	0	---	0.00	30.169 
03:30	20.6	20.6	20.6	86	17.1	0	0	---	0.00	30.170 
03:35	20.6	20.6	20.6	86	17.1	0	1	248	0.00	30.168 
03:40	20.6	20.6	20.6	86	17.1	0	1	248	0.00	30.173 
03:45	20.6	20.6	20.6	86	17.1	0	1	248	0.00	30.172 
03:50	20.6	20.6	20.6	85	16.8	0	0	---	0.00	30.174 
03:55	20.6	20.6	20.6	85	16.8	0	1	248	0.00	30.169 
04:00	20.6	20.6	20.6	85	16.8	0	0	---	0.00	30.167 
04:05	20.6	20.6	20.6	85	16.8	0	0	---	0.00	30.162 
04:10	20.6	20.6	20.6	85	16.8	0	1	248	0.00	30.161 
04:15	20.6	20.6	20.6	85	16.8	0	0	---	0.00	30.156 
04:20	20.6	20.6	20.6	85	16.8	0	1	248	0.00	30.152 
04:25	20.6	20.6	20.6	85	16.8	0	0	---	0.00	30.155 
04:30	20.6	20.6	20.6	86	17.1	0	0	---	0.00	30.153 
04:35	20.6	20.6	20.6	86	17.1	0	0	---	0.00	30.155 
04:40	20.6	20.6	20.6	86	17.1	0	0	---	0.00	30.159 
04:45	20.6	20.6	20.6	86	17.1	0	0	---	0.00	30.165 
04:50	20.6	20.6	20.6	86	17.1	0	0	---	0.00	30.167 
04:55	20.8	20.8	20.8	86	17.3	0	0	---	0.00	30.166 
05:00	20.8	20.8	20.8	86	17.3	0	0	---	0.00	30.167 
05:05	20.8	20.8	20.8	86	17.3	0	1	248	0.00	30.168 
05:10	20.8	20.8	20.8	86	17.3	1	3	248	0.00	30.175 
05:15	20.8	20.8	20.8	86	17.3	0	1	248	0.00	30.171 
05:20	20.8	20.8	20.8	86	17.3	0	2	248	0.00	30.174 
05:25	21.0	21.0	21.0	86	17.5	0	2	248	0.00	30.174 
05:30	21.0	21.0	21.0	86	17.5	0	1	248	0.00	30.168 
05:35	21.0	21.0	21.0	86	17.5	0	1	248	0.00	30.168 
05:40	21.0	21.0	21.0	86	17.5	0	1	248	0.00	30.173 
05:45	21.0	21.0	21.0	85	17.2	0	0	---	0.00	30.178 
05:50	21.0	21.0	21.0	85	17.2	0	0	---	0.00	30.177 
05:55	21.1	21.1	21.1	85	17.3	0	0	---	0.00	30.170 
06:00	21.1	21.1	21.1	85	17.3	0	0	---	0.00	30.174 
06:05	21.1	21.1	21.1	85	17.3	0	0	---	0.00	30.169 
06:10	21.1	21.1	21.1	85	17.3	0	0	---	0.00	30.170 
06:15	21.1	21.1	21.1	85	17.3	0	0	---	0.00	30.169 
06:20	21.1	21.1	21.1	86	17.6	0	0	---	0.00	30.169 
06:25	21.1	21.1	21.1	86	17.6	0	1	248	0.00	30.167 
06:30	21.1	21.1	21.1	86	17.6	0	0	---	0.00	30.160 
06:35	21.1	21.1	21.1	86	17.6	0	0	---	0.00	30.167 
06:40	21.1	21.1	21.1	86	17.6	0	1	248	0.00	30.170 
06:45	21.1	21.1	21.1	86	17.6	0	0	---	0.00	30.182 
06:50	21.1	21.1	21.1	86	17.6	0	0	---	0.00	30.181 
06:55	21.1	21.1	21.1	86	17.6	0	0	---	0.00	30.181 
07:00	21.1	21.1	21.1	86	17.6	0	1	248	0.00	30.184 
07:05	21.1	21.1	21.1	86	17.6	0	1	248	0.00	30.179 
07:10	21.1	21.1	21.1	86	17.6	0	1	248	0.00	30.178 
07:15	21.1	21.1	21.1	86	17.6	0	1	248	0.00	30.183 
07:20	21.1	21.1	21.1	86	17.6	0	1	248	0.00	30.182 
07:25	21.1	21.1	21.1	86	17.6	0	1	248	0.00	30.183 
07:30	21.1	21.1	21.1	86	17.6	0	2	248	0.00	30.184 
07:35	21.1	21.1	21.1	86	17.6	0	1	248	0.00	30.182 
07:40	21.1	21.1	21.1	86	17.6	0	1	248	0.00	30.184 
07:45	21.1	21.1	21.1	87	17.8	0	2	248	0.00	30.186 
07:50	21.1	21.1	21.1	87	17.8	0	1	248	0.00	30.185 
07:55	21.1	21.1	21.1	87	17.8	0	2	248	0.00	30.190 
08:00	21.1	21.1	21.1	87	17.8	0	1	248	0.00	30.190 
08:05	21.1	21.1	21.1	87	17.8	0	2	248	0.00	30.186 
08:10	21.1	21.1	21.1	87	17.8	0	0	---	0.00	30.185 
08:15	21.1	21.1	21.1	87	17.8	0	1	248	0.00	30.182 
08:20	21.1	21.1	21.1	87	17.8	0	0	---	0.00	30.181 
08:25	21.1	21.1	21.1	87	17.8	0	1	248	0.00	30.185 
08:30	21.3	21.3	21.3	87	18.0	0	0	---	0.00	30.184 
08:35	21.3	21.3	21.3	87	18.0	0	1	248	0.00	30.187 
08:40	21.4	21.4	21.4	87	18.1	0	0	---	0.00	30.190 
08:45	21.4	21.4	21.4	87	18.1	0	1	248	0.00	30.189 
08:50	21.6	21.6	21.6	87	18.3	0	0	---	0.00	30.192 
08:55	21.6	21.6	21.6	87	18.3	0	0	---	0.00	30.195 
09:00	21.8	21.8	21.8	87	18.5	0	0	---	0.00	30.197 
09:05	21.9	21.9	21.9	87	18.6	0	0	---	0.00	30.198 
09:10	22.1	22.1	22.1	87	18.8	0	0	---	0.00	30.196 
09:15	22.2	22.2	22.2	87	18.9	0	1	248	0.00	30.199 
09:20	22.4	22.4	22.4	87	19.1	0	0	---	0.00	30.200 
09:25	22.4	22.4	22.4	86	18.9	0	1	248	0.00	30.195 
09:30	22.4	22.4	22.4	86	18.9	0	0	---	0.00	30.187 
09:35	22.5	22.5	22.5	86	19.0	0	0	---	0.00	30.185 
09:40	22.7	22.7	22.7	86	19.2	0	1	248	0.00	30.184 
09:45	22.7	22.7	22.7	86	19.2	0	1	248	0.00	30.185 
09:50	22.9	22.9	22.9	86	19.4	0	1	248	0.00	30.189 
09:55	23.0	23.0	23.0	86	19.4	0	1	248	0.00	30.188 
10:00	23.0	23.0	23.0	86	19.4	0	1	248	0.00	30.187 
10:05	23.2	23.2	23.2	86	19.6	0	1	248	0.00	30.191 
10:10	23.2	23.2	23.2	85	19.4	0	1	248	0.00	30.192 
10:15	23.2	23.2	23.2	85	19.4	0	1	248	0.00	30.194 
10:20	23.3	23.3	23.3	85	19.5	0	1	248	0.00	30.193 
10:25	23.5	23.5	23.5	85	19.7	0	1	248	0.00	30.194 
10:30	23.6	23.6	23.6	85	19.8	0	1	248	0.00	30.196 
10:35	23.8	23.8	23.8	85	20.0	0	1	248	0.00	30.194 
10:40	23.9	23.9	23.9	84	19.8	0	2	248	0.00	30.196 
10:45	24.1	24.1	24.1	84	20.0	0	3	248	0.00	30.191 
10:50	24.2	24.2	24.2	84	20.1	1	3	248	0.00	30.189 
10:55	24.5	24.5	24.5	84	20.4	0	2	248	0.00	30.186 
11:00	24.7	24.7	24.7	83	20.3	0	2	248	0.00	30.185 
11:05	24.8	24.8	24.8	83	20.4	0	2	248	0.00	30.186 
11:10	25.1	25.1	25.1	83	20.7	0	2	248	0.00	30.186 
11:15	25.4	25.4	25.4	83	21.0	1	3	248	0.00	30.185 
11:20	25.4	25.4	25.4	82	20.7	1	3	248	0.00	30.184 
11:25	25.6	25.6	25.6	82	20.9	0	3	248	0.00	30.185 
11:30	25.7	25.7	25.7	82	21.0	1	3	248	0.00	30.182 
11:35	25.7	25.7	25.7	81	20.7	1	4	248	0.00	30.180 
11:40	25.7	25.7	25.7	81	20.7	1	3	248	0.00	30.177 
11:45	25.7	25.7	25.7	81	20.7	0	2	248	0.00	30.172 
11:50	25.7	25.7	25.7	81	20.7	1	5	248	0.00	30.169 
11:55	25.7	25.7	25.7	81	20.7	1	3	248	0.00	30.167 
12:00	25.8	25.8	25.8	81	20.8	1	5	248	0.00	30.164 
12:05	26.1	26.1	26.1	81	21.1	1	4	248	0.00	30.160 
12:10	26.3	26.3	26.3	81	21.3	1	4	248	0.00	30.155 
12:15	26.3	26.3	26.3	80	21.0	1	3	248	0.00	30.151 
12:20	26.3	26.3	26.3	81	21.3	1	4	248	0.00	30.150 
12:25	26.3	26.3	26.3	81	21.3	1	4	248	0.00	30.148 
12:30	26.6	26.6	26.6	81	21.6	1	3	248	0.00	30.145 
12:35	26.7	26.7	26.7	81	21.7	0	4	248	0.00	30.142 
12:40	26.7	26.7	26.7	80	21.4	0	2	248	0.00	30.140 
12:45	26.7	26.7	26.7	80	21.4	1	3	248	0.00	30.138 
12:50	26.4	26.4	26.4	80	21.1	2	5	248	0.00	30.136 
12:55	26.4	26.4	26.4	81	21.4	1	5	248	0.00	30.135 
13:00	26.3	26.3	26.3	81	21.3	1	3	270	0.00	30.133 
13:05	26.3	26.3	26.3	81	21.3	1	3	248	0.00	30.132 
13:10	26.3	26.3	26.3	80	21.0	1	4	248	0.00	30.127 
13:15	26.4	26.4	26.4	80	21.1	2	5	270	0.00	30.125 
13:20	26.4	26.4	26.4	80	21.1	1	2	270	0.00	30.121 
13:25	26.6	26.6	26.6	81	21.6	1	3	248	0.00	30.121 
13:30	26.4	26.4	26.4	80	21.1	2	4	270	0.00	30.121 
13:35	26.4	26.4	26.4	80	21.1	1	3	248	0.00	30.120 
13:40	26.3	26.3	26.3	79	20.7	1	4	248	0.00	30.119 
13:45	26.1	26.1	26.1	79	20.5	2	4	270	0.00	30.119 
13:50	26.1	26.1	26.1	79	20.5	1	4	270	0.00	30.119 
13:55	26.3	26.3	26.3	78	20.4	1	2	248	0.00	30.116 
14:00	26.3	26.3	26.3	77	20.1	1	3	270	0.00	30.112 
14:05	26.4	26.4	26.4	77	20.2	1	2	292	0.00	30.112 
14:10	26.6	26.6	26.6	77	20.4	2	6	248	0.00	30.109 
14:15	26.4	26.4	26.4	76	19.9	2	5	248	0.00	30.106 
14:20	26.4	26.4	26.4	77	20.2	1	3	248	0.00	30.106 
14:25	26.4	26.4	26.4	76	19.9	2	5	248	0.00	30.106 
14:30	26.3	26.3	26.3	76	19.8	2	5	248	0.00	30.105 
14:35	26.3	26.3	26.3	76	19.8	1	3	248	0.01	30.104 
14:40	26.0	26.0	26.0	74	18.9	2	5	248	0.00	30.104 
14:45	25.8	25.8	25.8	74	18.7	3	6	248	0.00	30.105 
14:50	25.7	25.7	25.7	74	18.6	1	3	270	0.00	30.104 
14:55	25.6	25.6	25.6	74	18.5	1	4	270	0.00	30.104 
15:00	25.7	25.7	25.7	74	18.6	1	2	270	0.00	30.104 
15:05	25.7	25.7	25.7	74	18.6	1	3	248	0.00	30.105 
15:10	25.6	25.6	25.6	73	18.2	1	3	248	0.00	30.105 
15:15	25.6	25.6	25.6	73	18.2	1	3	248	0.00	30.104 
15:20	25.4	25.4	25.4	73	18.0	1	3	248	0.00	30.104 
15:25	25.4	25.4	25.4	73	18.0	1	3	248	0.00	30.103 
15:30	25.4	25.4	25.4	72	17.7	1	5	248	0.00	30.103 
15:35	25.4	25.4	25.4	72	17.7	1	5	225	0.00	30.103 
15:40	25.4	25.4	25.4	72	17.7	1	4	248	0.00	30.103 
15:45	25.3	25.3	25.3	72	17.6	1	4	248	0.00	30.104 
15:50	25.1	25.1	25.1	73	17.7	1	3	248	0.00	30.106 
15:55	25.0	25.0	25.0	74	17.9	1	4	248	0.00	30.106 
16:00	24.7	24.7	24.7	75	17.9	1	3	248	0.00	30.107 
16:05	24.5	24.5	24.5	76	18.0	1	4	248	0.00	30.107 
16:10	24.4	24.4	24.4	76	17.9	2	4	248	0.00	30.110 
16:15	24.4	24.4	24.4	77	18.2	0	2	248	0.00	30.108 
16:20	24.2	24.2	24.2	77	18.1	0	2	248	0.00	30.107 
16:25	24.2	24.2	24.2	76	17.7	1	3	248	0.00	30.106 
16:30	24.2	24.2	24.2	76	17.7	1	3	248	0.00	30.106 
16:35	24.2	24.2	24.2	75	17.4	1	5	248	0.00	30.107 
16:40	24.2	24.2	24.2	76	17.7	0	3	248	0.00	30.106 
16:45	24.1	24.1	24.1	77	18.0	0	1	248	0.00	30.106 
16:50	24.1	24.1	24.1	77	18.0	0	2	248	0.00	30.107 
16:55	24.1	24.1	24.1	77	18.0	0	2	248	0.00	30.109 
17:00	23.9	23.9	23.9	78	18.1	0	3	248	0.00	30.109 
17:05	23.9	23.9	23.9	78	18.1	0	2	248	0.00	30.109 
17:10	23.8	23.8	23.8	79	18.3	0	2	248	0.00	30.110 
17:15	23.6	23.6	23.6	80	18.4	0	2	248	0.00	30.111 
17:20	23.6	23.6	23.6	80	18.4	0	2	248	0.00	30.109 
17:25	23.5	23.5	23.5	80	18.3	0	2	248	0.00	30.110 
17:30	23.3	23.3	23.3	81	18.3	0	0	---	0.00	30.109 
17:35	23.2	23.2	23.2	81	18.3	0	1	248	0.00	30.111 
17:40	23.0	23.0	23.0	81	18.1	0	0	---	0.00	30.109 
17:45	22.9	22.9	22.9	81	18.0	0	0	---	0.00	30.112 
17:50	22.7	22.7	22.7	82	18.0	0	0	---	0.00	30.118 
17:55	22.7	22.7	22.7	82	18.0	0	0	---	0.00	30.119 
18:00	22.7	22.7	22.7	83	18.3	0	0	---	0.00	30.120 
18:05	22.7	22.7	22.7	83	18.3	0	0	---	0.00	30.120 
18:10	22.7	22.7	22.7	83	18.3	0	0	---	0.00	30.120 
18:15	22.7	22.7	22.7	83	18.3	0	0	---	0.00	30.121 
18:20	22.5	22.5	22.5	84	18.4	0	0	---	0.00	30.120 
18:25	22.5	22.5	22.5	84	18.4	0	0	---	0.00	30.122 
18:30	22.5	22.5	22.5	84	18.4	0	0	---	0.00	30.125 
18:35	22.5	22.5	22.5	84	18.4	0	0	---	0.00	30.127 
18:40	22.5	22.5	22.5	84	18.4	0	0	---	0.00	30.126 
18:45	22.5	22.5	22.5	84	18.4	0	0	---	0.00	30.130 
18:50	22.7	22.7	22.7	85	18.9	0	0	---	0.00	30.133 
18:55	22.7	22.7	22.7	85	18.9	0	0	---	0.00	30.133 
19:00	22.9	22.9	22.9	85	19.1	0	0	---	0.00	30.134 
19:05	22.9	22.9	22.9	85	19.1	0	0	---	0.00	30.135 
19:10	22.9	22.9	22.9	86	19.4	0	0	---	0.00	30.136 
19:15	22.9	22.9	22.9	86	19.4	0	0	---	0.00	30.136 
19:20	22.9	22.9	22.9	86	19.4	0	1	248	0.00	30.137 
19:25	23.0	23.0	23.0	86	19.4	0	0	---	0.00	30.136 
19:30	23.0	23.0	23.0	86	19.4	0	0	---	0.00	30.136 
19:35	22.9	22.9	22.9	87	19.6	0	0	---	0.00	30.136 
19:40	22.9	22.9	22.9	87	19.6	0	1	248	0.00	30.137 
19:45	22.9	22.9	22.9	87	19.6	0	0	---	0.00	30.137 
19:50	22.9	22.9	22.9	87	19.6	0	0	---	0.00	30.137 
19:55	22.9	22.9	22.9	87	19.6	0	1	248	0.00	30.138 
20:00	22.9	22.9	22.9	87	19.6	0	1	248	0.00	30.139 
20:05	22.9	22.9	22.9	87	19.6	0	1	248	0.00	30.140 
20:10	22.7	22.7	22.7	87	19.4	0	1	248	0.00	30.139 
20:15	22.7	22.7	22.7	87	19.4	0	1	248	0.00	30.140 
20:20	22.7	22.7	22.7	87	19.4	0	1	248	0.00	30.143 
20:25	22.7	22.7	22.7	87	19.4	0	1	248	0.00	30.142 
20:30	22.7	22.7	22.7	88	19.7	0	1	248	0.00	30.140 
20:35	22.7	22.7	22.7	88	19.7	0	2	248	0.00	30.139 
20:40	22.7	22.7	22.7	88	19.7	0	1	248	0.00	30.138 
20:45	22.9	22.9	22.9	88	19.9	0	1	248	0.00	30.138 
20:50	22.9	22.9	22.9	88	19.9	0	1	248	0.00	30.138 
20:55	22.9	22.9	22.9	88	19.9	0	1	248	0.00	30.140 
21:00	22.9	22.9	22.9	88	19.9	0	1	248	0.00	30.141 
21:05	22.9	22.9	22.9	88	19.9	0	1	248	0.00	30.141 
21:10	22.9	22.9	22.9	88	19.9	0	2	248	0.00	30.137 
21:15	22.9	22.9	22.9	88	19.9	0	2	248	0.00	30.136 
21:20	22.9	22.9	22.9	88	19.9	0	1	248	0.00	30.136 
21:25	22.9	22.9	22.9	88	19.9	0	1	248	0.00	30.136 
21:30	22.9	22.9	22.9	89	20.2	0	1	248	0.00	30.137 
21:35	22.9	22.9	22.9	89	20.2	0	1	248	0.00	30.136 
21:40	22.7	22.7	22.7	89	20.0	0	1	248	0.00	30.135 
21:45	22.7	22.7	22.7	89	20.0	0	2	248	0.00	30.135 
21:50	22.7	22.7	22.7	89	20.0	0	2	248	0.00	30.135 
21:55	22.7	22.7	22.7	89	20.0	0	1	248	0.00	30.134 
22:00	22.7	22.7	22.7	89	20.0	0	3	248	0.00	30.135 
22:05	22.7	22.7	22.7	89	20.0	0	1	248	0.00	30.133 
22:10	22.7	22.7	22.7	89	20.0	0	1	248	0.00	30.132 
22:15	22.5	22.5	22.5	89	19.8	0	2	248	0.00	30.132 
22:20	22.4	22.4	22.4	89	19.7	0	1	248	0.00	30.131 
22:25	22.2	22.2	22.2	89	19.5	0	2	248	0.00	30.132 
22:30	22.2	22.2	22.2	89	19.5	0	0	---	0.00	30.131 
22:35	22.2	22.2	22.2	89	19.5	0	1	248	0.00	30.134 
22:40	22.2	22.2	22.2	89	19.5	0	1	248	0.00	30.135 
22:45	22.2	22.2	22.2	89	19.5	0	1	248	0.00	30.134 
22:50	22.2	22.2	22.2	89	19.5	0	1	248	0.00	30.134 
22:55	22.4	22.4	22.4	89	19.7	0	2	248	0.00	30.134 
23:00	22.4	22.4	22.4	89	19.7	0	1	248	0.00	30.133 
23:05	22.4	22.4	22.4	89	19.7	0	1	248	0.00	30.132 
23:10	22.4	22.4	22.4	89	19.7	0	2	248	0.00	30.132 
23:15	22.2	22.2	22.2	89	19.5	0	3	248	0.00	30.132 
23:20	22.2	22.2	22.2	88	19.2	0	2	270	0.00	30.133 
23:25	22.1	22.1	22.1	88	19.1	0	2	270	0.00	30.133 
23:30	21.9	21.9	21.9	88	18.9	0	2	270	0.00	30.133 
23:35	21.8	21.8	21.8	88	18.8	0	1	248	0.00	30.133 
23:40	21.8	21.8	21.8	88	18.8	0	2	248	0.00	30.133 
23:45	21.9	21.9	21.9	88	18.9	0	3	248	0.00	30.133 
23:50	21.9	21.9	21.9	88	18.9	0	1	248	0.00	30.133 
23:55	21.9	21.9	21.9	87	18.6	0	2	248	0.00	30.133 

CoCoRaHS
IN-AL-39
A2 Web Hosting
Creative Commons License
GoDaddy
search engine by freefind advanced

loaded 2018-11-17 12:52:23 • last modified 2010-11-18 10:43:29
Privacy PolicyDisclaimer
• wx.awcolley.com is powered by PmWiki v.2002016 •
• all content (unless otherwise noted) © 2018 A W Colley